Turtle Lake, WI (54889)

1:33 PM CST on December 09, 2016 (GMT -0600)
Cumberland Municipal | | Change Station

Elev 1240 ft 45.51 °N, 91.98 °W | Updated 18 minutes ago

Snow
Snow
18 °F
Feels Like 6 °F
N
9
Wind Variable Wind from WSW

Today
High -- | Low -- °F
--% Chance of Precip.
Yesterday
High -- | Low -- °F
Precip. -- in
Pressure 30.44 in
Visibility 10.0 miles
Clouds Overcast 3000 ft
Windchill 6 °F
Dew Point 9 °F
Humidity 68%
Rainfall 0.00 in
Snow Depth Not available.
7:36 AM 4:25 PM
Waxing Gibbous, 76% visible
METAR KUBE 091915Z AUTO 25008KT 10SM -SN OVC030 M08/M13 A3044 RMK AO2
Pressure 30.44 in
Visibility 10.0 miles
Clouds Overcast 3000 ft
Windchill 6 °F
Dew Point 9 °F
Humidity 68%
Rainfall 0.00 in
Snow Depth Not available.
7:36 AM 4:25 PM
Waxing Gibbous, 76% visible
METAR KUBE 091915Z AUTO 25008KT 10SM -SN OVC030 M08/M13 A3044 RMK AO2

10-Day Weather Forecast

Almanac

Astronomy

Dec. 09, 2016 Rise Set
Actual Time
Civil Twilight
Nautical Twilight
Astronomical Twilight
Moon
Length of Visible Light
Length of Day
Tomorrow will be .
, % of the Moon is Illuminated

Today's Extremes

State Highs State Lows

Community

WunderPhotos

Upload Photos

1,956,499 photos uploaded!

WunderBlog® & News

Nearby

Air Quality

  Air Quality AQ Index Pollutant
Not available.

Snow Depth

Station Depth Elevation

Earthquake Activity

City Distance Mag. Time & Date
Minimum magnitude displayed is 2.5.

Coastal Water Temperatures

Place Temperature

Stations

Nearby Weather Stations

Station Location Temp. Windchill Dew Point Humidity Wind Precip. Elev Updated Type
                   

Watches & Warnings

There are currently no watches in effect.